Leskovac / Mira Sport Airport

LYLE · Central Serbia, Serbia

使用的METAR站距离机场36 km。
罗盘
风向 的 风向 的 风向 到 风向 320° Leskovac / Mira Sport Airport 18/36
风: 12 kt, 4 beaufort

9 kt

8 kt
改变
0 ft 1.000 2.000 3.000 4.000 5.000
Cloud Cloud
FEW 5.000
METAR LYNI 211630Z 32012KT 290V010 9999 FEW050 30/18 Q1009 NOSIG

METAR Leskovac / Mira Sport Airport - LYLE

Leskovac / Mira Sport Airport是,Serbia中的小机场。 该机场位于纬度43,02050和经度21,93300。 该机场有一条跑道: 18/36. 本场的ICAO机场代码为LYLE。 机场在Beograd FIR中。

该航空气象观测是针对Nis Airport在2024年7月21日 18:30, 当地时间进行的。

机场观察

风向为320°,速度为12 kt。 风向在290°和010°之间变化。

可见度为10 km 或者更多。

有几云在5.000 ft的高度。 没有观察到天花板。

温度和风寒是30 °C。 热指数为31。 露点为18 °C,相对湿度为49%。 海平面上的气压为1009 hPa (QNH)。

白天

今天,太阳从05:12升起,在20:04降落。 这适用于Leskovac / Mira Sport Airport,世界夏令时可能有所不同。 当地时间与世界标准时间之间的时差为+2 小时。 夏令时目前正在进行中。

公司介绍

我们没有关于这个机场的公司信息。

体会

到Vliegles.nl去找飞行课程,跳伞和其他飞行体验。 浏览页面,了解Leskovac / Mira Sport Airport附近所有可用的活动。 你也可以使用搜索功能来寻找你所在地附近的特定飞行课程、跳伞或其他飞行体验。

跑道

Id 标题 侧风 逆风 侧风 %
18/36 182°-002° 8 kt 9 kt 67 %

逆风成分最大的方向会被突出显示,并用于横风计算。 这并不一定意味着这个方向在使用。

乌云

5.000 ft FEW 几云

温度 & 天气

温度 30 °C
露点 18 °C
相对湿度 49%
热度指数 31 °C
Kp-index 1 (0-9)

白天

日出
05:11
中午
12:39
日落
20:06 (1:25)

小工具

你想在你的网站上有一个关于Leskovac / Mira Sport Airport的当前航空天气(METAR)的小部件吗?

显示HTML代码
报告变更